Time;durP1;ratioP1;P1;durP2;ratioP2;P2;SDS_P1;SDS_P2;PMS_P1;PMS_P2;Temp;Humidity;BMP_temperature;BMP_pressure;BME280_temperature;BME280_humidity;BME280_pressure;Samples;Min_cycle;Max_cycle;Signal;HPM_P1;HPM_P2
2023/08/28 00:02:18;;;;;;;14.43;3.00;;;;;;;;;;5996181;23;20031;31
2023/08/28 00:04:54;;;;;;;14.10;2.97;;;;;;;;;;4899965;29;20045;-78
2023/08/28 00:07:27;;;;;;;10.48;2.90;;;;;;;;;;4887400;29;20041;-79
2023/08/28 00:09:58;;;;;;;7.75;2.80;;;;;;;;;;4903274;29;20055;-79
2023/08/28 00:12:28;;;;;;;6.80;2.67;;;;;;;;;;4910077;29;20056;-79
2023/08/28 00:15:01;;;;;;;6.07;3.10;;;;;;;;;;4910215;29;20060;-80
2023/08/28 00:17:36;;;;;;;9.73;2.83;;;;;;;;;;4885912;29;20048;-79
2023/08/28 00:20:08;;;;;;;7.40;2.65;;;;;;;;;;4904623;29;20063;-79
2023/08/28 00:22:39;;;;;;;7.43;2.67;;;;;;;;;;4912555;29;20047;-79
2023/08/28 00:25:13;;;;;;;5.30;2.50;;;;;;;;;;4910236;29;20055;-79
2023/08/28 00:27:47;;;;;;;7.38;2.80;;;;;;;;;;4887869;29;20053;-80
2023/08/28 00:30:18;;;;;;;7.43;2.78;;;;;;;;;;4887325;29;20060;-80
2023/08/28 00:32:48;;;;;;;10.40;2.80;;;;;;;;;;4907988;29;20048;-80
2023/08/28 00:35:21;;;;;;;7.13;2.88;;;;;;;;;;4918842;29;20392;-80
2023/08/28 00:37:52;;;;;;;10.45;2.90;;;;;;;;;;4901822;29;20052;-79
2023/08/28 00:40:25;;;;;;;13.25;3.10;;;;;;;;;;4900225;29;20057;-80
2023/08/28 00:42:55;;;;;;;7.88;2.20;;;;;;;;;;4892441;29;20068;-79
2023/08/28 00:45:28;;;;;;;6.40;2.42;;;;;;;;;;4905567;29;20044;-79
2023/08/28 00:48:02;;;;;;;8.48;2.33;;;;;;;;;;4909053;29;20055;-79
2023/08/28 00:50:37;;;;;;;8.32;2.92;;;;;;;;;;4910687;29;20488;-80
2023/08/28 00:53:11;;;;;;;8.70;2.83;;;;;;;;;;4889546;29;20181;-79
2023/08/28 00:55:45;;;;;;;5.90;2.47;;;;;;;;;;4886563;29;20052;-79
2023/08/28 00:58:16;;;;;;;7.35;2.75;;;;;;;;;;4882533;29;20061;-79
2023/08/28 01:00:47;;;;;;;13.40;3.38;;;;;;;;;;4893309;29;20048;-79
2023/08/28 01:03:17;;;;;;;6.75;2.17;;;;;;;;;;4890641;29;20056;-79
2023/08/28 01:06:06;;;;;;;10.10;3.00;;;;;;;;;;4892780;29;20060;-79
2023/08/28 01:09:08;;;;;;;8.27;2.47;;;;;;;;;;4897442;29;20423;-79
2023/08/28 01:12:11;;;;;;;4.72;2.30;;;;;;;;;;4919999;29;20055;-79
2023/08/28 01:15:22;;;;;;;6.78;2.30;;;;;;;;;;4901759;29;20048;-79
2023/08/28 01:18:02;;;;;;;8.15;2.50;;;;;;;;;;4842388;29;20513;-79
2023/08/28 01:20:35;;;;;;;6.70;2.42;;;;;;;;;;4829312;29;20058;-79
2023/08/28 01:23:20;;;;;;;8.38;2.92;;;;;;;;;;4884270;29;20060;-78
2023/08/28 01:25:56;;;;;;;6.28;2.75;;;;;;;;;;4889120;29;20510;-79
2023/08/28 01:28:30;;;;;;;6.35;2.50;;;;;;;;;;4887979;29;20071;-79
2023/08/28 01:31:05;;;;;;;8.02;2.22;;;;;;;;;;4888365;29;20048;-79
2023/08/28 01:33:39;;;;;;;6.93;2.45;;;;;;;;;;4888757;29;20068;-80
2023/08/28 01:36:21;;;;;;;5.65;2.20;;;;;;;;;;4891872;29;20048;-80
2023/08/28 01:38:59;;;;;;;6.88;2.38;;;;;;;;;;4906289;29;20056;-80
2023/08/28 01:41:34;;;;;;;5.72;2.13;;;;;;;;;;4900265;29;20048;-79
2023/08/28 01:44:09;;;;;;;6.90;2.38;;;;;;;;;;4905156;29;20683;-80
2023/08/28 01:46:40;;;;;;;6.05;2.05;;;;;;;;;;4884765;29;20056;-80
2023/08/28 01:49:11;;;;;;;10.05;2.58;;;;;;;;;;4915820;29;20048;-80
2023/08/28 01:51:43;;;;;;;5.35;2.15;;;;;;;;;;4898639;29;20052;-80
2023/08/28 01:54:17;;;;;;;5.07;2.33;;;;;;;;;;4900786;29;20040;-80
2023/08/28 01:56:49;;;;;;;6.22;2.00;;;;;;;;;;4899839;29;20052;-80
2023/08/28 01:59:19;;;;;;;7.35;2.47;;;;;;;;;;4898852;29;20056;-80
2023/08/28 02:01:52;;;;;;;6.18;2.42;;;;;;;;;;4898919;29;20056;-79
2023/08/28 02:04:25;;;;;;;7.03;2.22;;;;;;;;;;4900151;29;20052;-80
2023/08/28 02:07:02;;;;;;;6.90;2.70;;;;;;;;;;4898251;29;20052;-80
2023/08/28 02:09:33;;;;;;;5.40;2.25;;;;;;;;;;4894854;29;20048;-80
2023/08/28 02:12:06;;;;;;;8.38;2.90;;;;;;;;;;4887773;29;20492;-79
2023/08/28 02:14:38;;;;;;;6.97;2.67;;;;;;;;;;4888596;29;20052;-80
2023/08/28 02:17:12;;;;;;;6.88;2.50;;;;;;;;;;4881115;29;20523;-79
2023/08/28 02:19:42;;;;;;;6.38;2.72;;;;;;;;;;4888093;29;20395;-79
2023/08/28 02:22:13;;;;;;;7.90;2.53;;;;;;;;;;4891355;29;20055;-79
2023/08/28 02:24:44;;;;;;;5.88;2.75;;;;;;;;;;4916402;29;20044;-80
2023/08/28 02:27:17;;;;;;;7.40;2.42;;;;;;;;;;4899804;29;20052;-79
2023/08/28 02:29:48;;;;;;;7.75;2.72;;;;;;;;;;4896008;29;20055;-80
2023/08/28 02:32:20;;;;;;;6.85;2.63;;;;;;;;;;4894553;29;20058;-80
2023/08/28 02:34:56;;;;;;;6.90;2.40;;;;;;;;;;4907127;29;20079;-78
2023/08/28 02:37:29;;;;;;;7.97;2.78;;;;;;;;;;4923826;29;20029;-78
2023/08/28 02:40:00;;;;;;;8.25;2.72;;;;;;;;;;4908804;29;20055;-79
2023/08/28 02:42:32;;;;;;;5.53;2.35;;;;;;;;;;4900996;29;20048;-79
2023/08/28 02:45:04;;;;;;;8.43;2.75;;;;;;;;;;4903377;29;20048;-78
2023/08/28 02:47:37;;;;;;;6.70;2.72;;;;;;;;;;4888071;29;20052;-79
2023/08/28 02:50:09;;;;;;;12.63;2.67;;;;;;;;;;4886705;29;20432;-79
2023/08/28 02:52:42;;;;;;;8.48;2.33;;;;;;;;;;4904724;29;20041;-79
2023/08/28 02:55:16;;;;;;;9.10;3.08;;;;;;;;;;4896460;29;20052;-78
2023/08/28 02:57:49;;;;;;;8.95;2.80;;;;;;;;;;4886974;29;20523;-78
2023/08/28 03:00:22;;;;;;;8.23;2.53;;;;;;;;;;4895456;29;20423;-78
2023/08/28 03:02:54;;;;;;;16.70;3.00;;;;;;;;;;4910923;29;20053;-77
2023/08/28 03:05:28;;;;;;;9.07;3.08;;;;;;;;;;4894006;29;20075;-78
2023/08/28 03:08:01;;;;;;;11.80;3.50;;;;;;;;;;4898820;29;20055;-79
2023/08/28 03:10:34;;;;;;;7.05;2.60;;;;;;;;;;4891479;29;20044;-79
2023/08/28 03:13:07;;;;;;;7.65;2.92;;;;;;;;;;4911781;29;20060;-79
2023/08/28 03:15:42;;;;;;;8.25;2.92;;;;;;;;;;4913998;29;20455;-78
2023/08/28 03:18:16;;;;;;;7.82;2.85;;;;;;;;;;4886860;29;20419;-79
2023/08/28 03:20:46;;;;;;;11.10;2.47;;;;;;;;;;4919506;29;20444;-79
2023/08/28 03:23:20;;;;;;;7.38;3.05;;;;;;;;;;4878149;29;20052;-79
2023/08/28 03:25:53;;;;;;;;;;;;;;;;;;4900481;29;20071;-79
2023/08/28 03:28:24;;;;;;;8.27;3.05;;;;;;;;;;4883177;29;19930;-81
2023/08/28 03:30:58;;;;;;;13.38;3.50;;;;;;;;;;4910094;29;20048;-80
2023/08/28 03:33:31;;;;;;;8.93;3.38;;;;;;;;;;4901499;29;20052;-79
2023/08/28 03:36:04;;;;;;;;;;;;;;;;;;4919589;29;20495;-81
2023/08/28 03:38:36;;;;;;;6.90;2.50;;;;;;;;;;4902409;29;20414;-79
2023/08/28 03:41:09;;;;;;;9.75;2.97;;;;;;;;;;4901841;29;20055;-80
2023/08/28 03:43:40;;;;;;;8.50;3.00;;;;;;;;;;4901934;29;20393;-79
2023/08/28 03:46:11;;;;;;;9.93;3.05;;;;;;;;;;4902780;29;20041;-79
2023/08/28 03:48:41;;;;;;;10.73;2.53;;;;;;;;;;4887295;29;20059;-79
2023/08/28 03:51:12;;;;;;;6.00;2.15;;;;;;;;;;4897040;29;20056;-81
2023/08/28 03:53:46;;;;;;;6.50;2.47;;;;;;;;;;4884040;29;20063;-80
2023/08/28 03:56:18;;;;;;;7.03;2.97;;;;;;;;;;4900616;29;20051;-79
2023/08/28 03:58:50;;;;;;;9.25;3.20;;;;;;;;;;4885278;29;20060;-79
2023/08/28 04:01:20;;;;;;;9.15;2.55;;;;;;;;;;4883515;29;20519;-78
2023/08/28 04:03:51;;;;;;;9.65;2.78;;;;;;;;;;4883326;29;20147;-78
2023/08/28 04:06:25;;;;;;;9.23;3.33;;;;;;;;;;4884447;29;20044;-79
2023/08/28 04:08:57;;;;;;;9.05;3.15;;;;;;;;;;4891828;29;20057;-77
2023/08/28 04:11:29;;;;;;;10.35;3.22;;;;;;;;;;4909952;29;20051;-81
2023/08/28 04:14:01;;;;;;;10.77;3.00;;;;;;;;;;4900736;29;20079;-79
2023/08/28 04:16:34;;;;;;;7.20;2.53;;;;;;;;;;4894145;29;20484;-79
2023/08/28 04:19:05;;;;;;;7.82;2.58;;;;;;;;;;4892072;29;20388;-77
2023/08/28 04:21:37;;;;;;;7.57;2.63;;;;;;;;;;4904686;29;20045;-78
2023/08/28 04:24:09;;;;;;;8.88;3.53;;;;;;;;;;4899510;29;20349;-80
2023/08/28 04:26:41;;;;;;;7.03;2.45;;;;;;;;;;4886863;29;20056;-79
2023/08/28 04:29:13;;;;;;;10.13;3.08;;;;;;;;;;4883688;29;20052;-78
2023/08/28 04:31:43;;;;;;;9.23;3.17;;;;;;;;;;4883130;29;20052;-78
2023/08/28 04:34:18;;;;;;;9.52;2.70;;;;;;;;;;4884843;29;20064;-78
2023/08/28 04:36:50;;;;;;;7.07;3.45;;;;;;;;;;4900086;29;20523;-79
2023/08/28 04:39:23;;;;;;;6.45;2.70;;;;;;;;;;4899478;29;20064;-80
2023/08/28 04:41:54;;;;;;;7.55;2.97;;;;;;;;;;4900275;29;20477;-80
2023/08/28 04:44:28;;;;;;;7.72;2.53;;;;;;;;;;4899552;29;20059;-79
2023/08/28 04:47:01;;;;;;;6.25;2.90;;;;;;;;;;4887825;29;20044;-79
2023/08/28 04:49:33;;;;;;;11.73;3.10;;;;;;;;;;4901113;29;20052;-78
2023/08/28 04:52:04;;;;;;;6.13;2.67;;;;;;;;;;4900948;29;20052;-80
2023/08/28 04:54:37;;;;;;;5.90;2.88;;;;;;;;;;4917896;29;20059;-78
2023/08/28 04:57:12;;;;;;;;;;;;;;;;;;4901453;29;20421;-79
2023/08/28 04:59:44;;;;;;;8.82;2.95;;;;;;;;;;4900489;29;19930;-79
2023/08/28 05:02:14;;;;;;;8.75;2.53;;;;;;;;;;4917181;29;20044;-78
2023/08/28 05:04:48;;;;;;;5.38;2.85;;;;;;;;;;4900040;29;20436;-79
2023/08/28 05:07:20;;;;;;;6.43;2.60;;;;;;;;;;4901387;29;20412;-78
2023/08/28 05:09:51;;;;;;;9.85;3.00;;;;;;;;;;4901657;29;20048;-79
2023/08/28 05:12:20;;;;;;;7.85;3.00;;;;;;;;;;4915986;29;20056;-79
2023/08/28 05:14:51;;;;;;;11.57;2.97;;;;;;;;;;4900947;29;20075;-78
2023/08/28 05:17:24;;;;;;;8.32;2.33;;;;;;;;;;4901833;29;20456;-79
2023/08/28 05:19:54;;;;;;;11.20;3.03;;;;;;;;;;4917966;29;20052;-80
2023/08/28 05:22:27;;;;;;;5.88;2.63;;;;;;;;;;4901264;29;20052;-78
2023/08/28 05:24:57;;;;;;;6.47;3.30;;;;;;;;;;4899729;29;20056;-77
2023/08/28 05:27:28;;;;;;;9.77;3.17;;;;;;;;;;4900982;29;20056;-80
2023/08/28 05:30:00;;;;;;;9.02;3.28;;;;;;;;;;4901355;29;20411;-80
2023/08/28 05:32:33;;;;;;;8.25;2.90;;;;;;;;;;4900941;29;20384;-78
2023/08/28 05:35:06;;;;;;;7.07;2.83;;;;;;;;;;4915811;29;20059;-78
2023/08/28 05:37:39;;;;;;;8.63;3.03;;;;;;;;;;4900990;29;20063;-78
2023/08/28 05:40:14;;;;;;;7.97;3.00;;;;;;;;;;4900370;29;20056;-80
2023/08/28 05:42:48;;;;;;;6.88;3.25;;;;;;;;;;4900151;29;20052;-78
2023/08/28 05:45:18;;;;;;;6.13;3.03;;;;;;;;;;4918395;29;20063;-79
2023/08/28 05:47:51;;;;;;;8.05;2.83;;;;;;;;;;4900102;29;20059;-80
2023/08/28 05:50:23;;;;;;;7.38;2.95;;;;;;;;;;4900255;29;20052;-79
2023/08/28 05:52:56;;;;;;;6.43;2.85;;;;;;;;;;4899466;29;20067;-79
2023/08/28 05:55:27;;;;;;;9.15;3.17;;;;;;;;;;4917009;29;20480;-80
2023/08/28 05:58:03;;;;;;;7.13;2.75;;;;;;;;;;4900192;29;20048;-78
2023/08/28 06:00:33;;;;;;;8.65;3.70;;;;;;;;;;4900568;29;20056;-80
2023/08/28 06:03:06;;;;;;;8.40;3.17;;;;;;;;;;4899583;29;20056;-79
2023/08/28 06:05:41;;;;;;;6.75;3.17;;;;;;;;;;4899947;29;20075;-80
2023/08/28 06:08:16;;;;;;;7.60;3.13;;;;;;;;;;4900704;29;20499;-80
2023/08/28 06:10:48;;;;;;;6.20;2.83;;;;;;;;;;4899364;29;20068;-78
2023/08/28 06:13:19;;;;;;;6.65;2.78;;;;;;;;;;4917892;29;20052;-80
2023/08/28 06:15:49;;;;;;;6.05;2.58;;;;;;;;;;4900564;29;20543;-80
2023/08/28 06:18:19;;;;;;;6.60;2.55;;;;;;;;;;4920443;29;20051;-79
2023/08/28 06:20:52;;;;;;;7.90;2.60;;;;;;;;;;4903978;29;20071;-79
2023/08/28 06:23:27;;;;;;;7.10;2.67;;;;;;;;;;4917494;29;20062;-76
2023/08/28 06:25:58;;;;;;;9.13;2.80;;;;;;;;;;4919614;29;20059;-76
2023/08/28 06:28:31;;;;;;;5.63;2.88;;;;;;;;;;4905835;29;20349;-80
2023/08/28 06:31:05;;;;;;;7.05;2.83;;;;;;;;;;4916580;29;20507;-80
2023/08/28 06:33:38;;;;;;;8.18;2.97;;;;;;;;;;4916449;29;20161;-79
2023/08/28 06:36:09;;;;;;;7.80;2.83;;;;;;;;;;4900827;29;20063;-78
2023/08/28 06:38:41;;;;;;;8.65;3.03;;;;;;;;;;4903180;29;20067;-80
2023/08/28 06:41:12;;;;;;;8.27;2.70;;;;;;;;;;4920766;29;20048;-79
2023/08/28 06:43:42;;;;;;;6.85;4.07;;;;;;;;;;4920508;29;20067;-80
2023/08/28 06:46:12;;;;;;;7.35;3.63;;;;;;;;;;4920196;29;20052;-79
2023/08/28 06:48:44;;;;;;;8.93;2.72;;;;;;;;;;4920120;29;20051;-81
2023/08/28 06:51:14;;;;;;;6.68;2.97;;;;;;;;;;4920285;29;20151;-78
2023/08/28 06:53:48;;;;;;;6.10;2.70;;;;;;;;;;4920508;29;20060;-78
2023/08/28 06:56:20;;;;;;;9.05;3.00;;;;;;;;;;4920489;29;20048;-79
2023/08/28 06:58:51;;;;;;;9.68;2.83;;;;;;;;;;4919962;29;20053;-80
2023/08/28 07:01:22;;;;;;;7.22;2.80;;;;;;;;;;4919827;29;20059;-79
2023/08/28 07:03:54;;;;;;;6.57;2.80;;;;;;;;;;4920376;29;20052;-79
2023/08/28 07:06:25;;;;;;;8.13;3.10;;;;;;;;;;4919928;29;20056;-78
2023/08/28 07:08:55;;;;;;;7.57;3.38;;;;;;;;;;4920219;29;20044;-78
2023/08/28 07:11:25;;;;;;;9.98;3.47;;;;;;;;;;4922451;29;20071;-80
2023/08/28 07:13:59;;;;;;;5.70;2.70;;;;;;;;;;4904232;29;20048;-79
2023/08/28 07:16:33;;;;;;;7.00;2.95;;;;;;;;;;4921359;29;20518;-80
2023/08/28 07:19:08;;;;;;;11.13;3.30;;;;;;;;;;4905146;29;20066;-78
2023/08/28 07:21:38;;;;;;;8.65;2.60;;;;;;;;;;4922465;29;20067;-79
2023/08/28 07:24:10;;;;;;;7.40;3.42;;;;;;;;;;4890928;29;20052;-78
2023/08/28 07:26:42;;;;;;;10.27;3.20;;;;;;;;;;4921079;29;20075;-80
2023/08/28 07:29:13;;;;;;;6.78;2.75;;;;;;;;;;4923368;29;20052;-79
2023/08/28 07:31:44;;;;;;;8.73;3.65;;;;;;;;;;4921342;29;20048;-79
2023/08/28 07:34:19;;;;;;;6.50;2.92;;;;;;;;;;4919634;29;20052;-78
2023/08/28 07:36:51;;;;;;;8.80;3.22;;;;;;;;;;4919124;29;20059;-78
2023/08/28 07:39:30;;;;;;;7.63;2.83;;;;;;;;;;4901611;29;20067;-77
2023/08/28 07:42:00;;;;;;;6.22;2.60;;;;;;;;;;4919389;29;20048;-77
2023/08/28 07:44:35;;;;;;;9.20;2.95;;;;;;;;;;4919039;29;20052;-77
2023/08/28 07:47:08;;;;;;;5.88;2.97;;;;;;;;;;4919254;29;20153;-79
2023/08/28 07:49:39;;;;;;;10.70;2.60;;;;;;;;;;4919074;29;20059;-78
2023/08/28 07:52:09;;;;;;;10.30;3.42;;;;;;;;;;4919753;29;20048;-78
2023/08/28 07:54:41;;;;;;;6.75;2.97;;;;;;;;;;4902784;29;20056;-78
2023/08/28 07:57:15;;;;;;;8.40;3.13;;;;;;;;;;4901379;29;20384;-80
2023/08/28 07:59:48;;;;;;;6.75;2.78;;;;;;;;;;4901795;29;20076;-79
2023/08/28 08:02:18;;;;;;;7.57;3.30;;;;;;;;;;4919220;29;20048;-78
2023/08/28 08:04:50;;;;;;;9.25;2.80;;;;;;;;;;4919293;29;20052;-78
2023/08/28 08:07:22;;;;;;;15.80;3.67;;;;;;;;;;4919292;29;20048;-79
2023/08/28 08:09:56;;;;;;;7.82;2.97;;;;;;;;;;4918820;29;20048;-80
2023/08/28 08:12:28;;;;;;;7.93;3.08;;;;;;;;;;4918945;29;20048;-80
2023/08/28 08:15:06;;;;;;;6.25;3.03;;;;;;;;;;4918699;29;20041;-78
2023/08/28 08:17:40;;;;;;;6.90;3.03;;;;;;;;;;4902328;29;20392;-79
2023/08/28 08:20:15;;;;;;;7.68;3.22;;;;;;;;;;4902946;29;20063;-78
2023/08/28 08:22:46;;;;;;;9.27;3.45;;;;;;;;;;4919208;29;20044;-78
2023/08/28 08:25:22;;;;;;;5.25;2.53;;;;;;;;;;4918961;29;20056;-79
2023/08/28 08:27:54;;;;;;;8.63;3.50;;;;;;;;;;4918673;29;20044;-78
2023/08/28 08:30:26;;;;;;;8.48;2.88;;;;;;;;;;4918460;29;20388;-78
2023/08/28 08:32:58;;;;;;;9.60;3.08;;;;;;;;;;4902413;29;20044;-78
2023/08/28 08:35:32;;;;;;;7.57;2.80;;;;;;;;;;4918328;29;20048;-78
2023/08/28 08:38:08;;;;;;;6.68;3.03;;;;;;;;;;4901231;29;20059;-81
2023/08/28 08:40:41;;;;;;;11.45;3.20;;;;;;;;;;4902225;29;20059;-78
2023/08/28 08:43:12;;;;;;;9.23;3.40;;;;;;;;;;4918311;29;20071;-78
2023/08/28 08:45:44;;;;;;;;;;;;;;;;;;4918644;29;20048;-78
2023/08/28 08:48:20;;;;;;;8.25;3.00;;;;;;;;;;4918136;29;19922;-79
2023/08/28 08:50:51;;;;;;;6.30;3.15;;;;;;;;;;4917403;29;20048;-80
2023/08/28 08:53:48;;;;;;;6.50;2.90;;;;;;;;;;4918696;29;20052;-77
2023/08/28 08:56:24;;;;;;;9.90;3.67;;;;;;;;;;4891883;29;20084;-78
2023/08/28 08:58:55;;;;;;;7.00;2.97;;;;;;;;;;4900585;29;20056;-77
2023/08/28 09:01:28;;;;;;;8.27;3.25;;;;;;;;;;4918398;29;20051;-78
2023/08/28 09:04:02;;;;;;;7.47;2.65;;;;;;;;;;4918204;29;20056;-78
2023/08/28 09:06:39;;;;;;;7.97;3.08;;;;;;;;;;4918563;29;20067;-80
2023/08/28 09:09:15;;;;;;;6.13;2.80;;;;;;;;;;4901684;29;20048;-80
2023/08/28 09:11:51;;;;;;;6.43;2.83;;;;;;;;;;4902139;29;20048;-78
2023/08/28 09:14:20;;;;;;;8.07;3.10;;;;;;;;;;4918621;29;20366;-79
2023/08/28 09:16:52;;;;;;;6.20;2.95;;;;;;;;;;4902239;29;20044;-80
2023/08/28 09:19:22;;;;;;;7.80;2.90;;;;;;;;;;4917861;29;20056;-78
2023/08/28 09:21:52;;;;;;;6.15;2.80;;;;;;;;;;4918264;29;20048;-77
2023/08/28 09:24:23;;;;;;;6.15;2.80;;;;;;;;;;4918777;29;20044;-78
2023/08/28 09:26:55;;;;;;;8.13;3.10;;;;;;;;;;4918856;29;20048;-78
2023/08/28 09:29:27;;;;;;;8.50;3.03;;;;;;;;;;4918646;29;20056;-79
2023/08/28 09:32:05;;;;;;;8.82;3.42;;;;;;;;;;4900225;29;20052;-78
2023/08/28 09:34:40;;;;;;;6.40;3.03;;;;;;;;;;4917262;29;20047;-79
2023/08/28 09:37:13;;;;;;;7.82;3.17;;;;;;;;;;4916953;29;20048;-78
2023/08/28 09:39:59;;;;;;;11.35;2.90;;;;;;;;;;4916981;29;20059;-78
2023/08/28 09:42:32;;;;;;;8.82;3.63;;;;;;;;;;4917612;29;20048;-79
2023/08/28 09:45:07;;;;;;;9.57;3.42;;;;;;;;;;4900458;29;20055;-79
2023/08/28 09:47:41;;;;;;;8.90;3.20;;;;;;;;;;4911792;29;20058;-79
2023/08/28 09:50:17;;;;;;;8.70;3.25;;;;;;;;;;4918110;29;20063;-78
2023/08/28 09:52:49;;;;;;;8.43;3.25;;;;;;;;;;4911663;29;20059;-77
2023/08/28 09:55:20;;;;;;;10.18;3.85;;;;;;;;;;4926306;29;20059;-75
2023/08/28 09:57:50;;;;;;;6.88;2.97;;;;;;;;;;4930268;29;20099;-76
2023/08/28 10:00:22;;;;;;;15.48;3.35;;;;;;;;;;4899904;29;20036;-79
2023/08/28 10:02:57;;;;;;;11.02;3.25;;;;;;;;;;4914454;29;20408;-78
2023/08/28 10:05:28;;;;;;;8.55;3.03;;;;;;;;;;4916873;29;20040;-79
2023/08/28 10:08:05;;;;;;;8.20;3.08;;;;;;;;;;4900581;29;20511;-78
2023/08/28 10:10:42;;;;;;;8.93;3.58;;;;;;;;;;4900458;29;20048;-78
2023/08/28 10:13:21;;;;;;;6.32;3.08;;;;;;;;;;4916902;29;20096;-78
2023/08/28 10:16:09;;;;;;;12.27;3.40;;;;;;;;;;4916717;29;20492;-78
2023/08/28 10:18:47;;;;;;;9.30;3.80;;;;;;;;;;4916684;29;20480;-78
2023/08/28 10:21:18;;;;;;;6.65;3.20;;;;;;;;;;4916947;29;20056;-79
2023/08/28 10:23:51;;;;;;;11.98;3.47;;;;;;;;;;4917480;29;20052;-78
2023/08/28 10:26:22;;;;;;;13.85;3.58;;;;;;;;;;4917116;29;20048;-78
2023/08/28 10:28:54;;;;;;;11.55;3.72;;;;;;;;;;4916721;29;20056;-78
2023/08/28 10:31:27;;;;;;;14.45;4.47;;;;;;;;;;4899711;29;20395;-80
2023/08/28 10:33:58;;;;;;;14.90;4.75;;;;;;;;;;4917224;29;20055;-78
2023/08/28 10:36:31;;;;;;;21.23;4.60;;;;;;;;;;4916695;29;20040;-78
2023/08/28 10:39:24;;;;;;;9.90;3.72;;;;;;;;;;4915135;29;20080;-79
2023/08/28 10:41:57;;;;;;;10.18;3.95;;;;;;;;;;4899892;29;20056;-79
2023/08/28 10:44:29;;;;;;;15.77;4.72;;;;;;;;;;4916284;29;20048;-79
2023/08/28 10:47:00;;;;;;;;;;;;;;;;;;4914912;29;20162;-78
2023/08/28 10:49:33;;;;;;;14.27;5.22;;;;;;;;;;4914767;29;19930;-79
2023/08/28 10:52:09;;;;;;;17.60;6.25;;;;;;;;;;4916440;29;20052;-79
2023/08/28 10:54:44;;;;;;;21.08;6.28;;;;;;;;;;4915420;29;20048;-79
2023/08/28 10:57:28;;;;;;;17.67;5.78;;;;;;;;;;4904406;29;20051;-79
2023/08/28 11:00:14;;;;;;;19.38;5.57;;;;;;;;;;4906985;29;20048;-79
2023/08/28 11:03:07;;;;;;;17.40;6.05;;;;;;;;;;4897657;29;20064;-80
2023/08/28 11:05:40;;;;;;;10.68;4.53;;;;;;;;;;4881332;29;20040;-79
2023/08/28 11:08:14;;;;;;;14.45;5.13;;;;;;;;;;4897847;29;20048;-80
2023/08/28 11:11:12;;;;;;;14.80;5.03;;;;;;;;;;4880347;29;20053;-81
2023/08/28 11:14:01;;;;;;;25.98;5.97;;;;;;;;;;4882000;29;20059;-78
2023/08/28 11:16:42;;;;;;;17.42;4.50;;;;;;;;;;4897337;29;20056;-81
2023/08/28 11:19:13;;;;;;;12.27;5.40;;;;;;;;;;4896869;29;20055;-78
2023/08/28 11:21:43;;;;;;;17.98;5.95;;;;;;;;;;4897383;29;20503;-80
2023/08/28 11:24:24;;;;;;;13.93;4.68;;;;;;;;;;4883086;29;20071;-80
2023/08/28 11:26:55;;;;;;;18.48;4.47;;;;;;;;;;4900955;29;20051;-81
2023/08/28 11:29:26;;;;;;;16.90;4.22;;;;;;;;;;4883451;29;20056;-81
2023/08/28 11:32:02;;;;;;;12.48;5.03;;;;;;;;;;4901463;29;20053;-81
2023/08/28 11:34:36;;;;;;;19.67;6.55;;;;;;;;;;4900972;29;20055;-80
2023/08/28 11:37:32;;;;;;;14.88;5.50;;;;;;;;;;4900590;29;20049;-81
2023/08/28 11:40:08;;;;;;;20.33;6.22;;;;;;;;;;4884000;29;20511;-81
2023/08/28 11:42:41;;;;;;;12.75;5.68;;;;;;;;;;4886887;29;20052;-81
2023/08/28 11:45:19;;;;;;;12.55;5.30;;;;;;;;;;4892529;29;20044;-81
2023/08/28 11:47:53;;;;;;;23.88;7.93;;;;;;;;;;4891536;29;20049;-81
2023/08/28 11:50:23;;;;;;;16.58;6.60;;;;;;;;;;4906605;29;20044;-80
2023/08/28 11:52:55;;;;;;;19.08;6.55;;;;;;;;;;4908185;29;20055;-81
2023/08/28 11:55:33;;;;;;;16.48;5.90;;;;;;;;;;4907420;29;20040;-82
2023/08/28 11:58:07;;;;;;;10.63;4.75;;;;;;;;;;4911978;29;20041;-82
2023/08/28 12:00:38;;;;;;;13.23;4.65;;;;;;;;;;4900217;29;20473;-83
2023/08/28 12:03:18;;;;;;;10.82;4.07;;;;;;;;;;4905133;29;20361;-82
2023/08/28 12:06:01;;;;;;;9.60;3.20;;;;;;;;;;4910409;29;20051;-81
2023/08/28 12:08:41;;;;;;;5.10;2.42;;;;;;;;;;4907379;29;20041;-80
2023/08/28 12:11:15;;;;;;;8.60;3.63;;;;;;;;;;4891155;29;20417;-82
2023/08/28 12:13:51;;;;;;;13.80;4.45;;;;;;;;;;4909373;29;20048;-82
2023/08/28 12:16:24;;;;;;;8.85;3.20;;;;;;;;;;4900698;29;20530;-82
2023/08/28 12:18:57;;;;;;;5.60;3.25;;;;;;;;;;4907678;29;20415;-83
2023/08/28 12:21:38;;;;;;;10.07;4.18;;;;;;;;;;4892771;29;20048;-83
2023/08/28 12:24:14;;;;;;;10.43;3.63;;;;;;;;;;4910521;29;20609;-83
2023/08/28 12:26:45;;;;;;;8.98;3.83;;;;;;;;;;4900643;29;20056;-83
2023/08/28 12:29:16;;;;;;;13.02;5.60;;;;;;;;;;4908393;29;20044;-83
2023/08/28 12:31:48;;;;;;;6.60;2.75;;;;;;;;;;4892488;29;20089;-83
2023/08/28 12:34:23;;;;;;;14.07;5.53;;;;;;;;;;4889382;29;20056;-84
2023/08/28 12:37:11;;;;;;;13.23;6.07;;;;;;;;;;4899508;29;20489;-84
2023/08/28 12:39:47;;;;;;;25.15;5.30;;;;;;;;;;4899750;29;20048;-82
2023/08/28 12:42:19;;;;;;;20.20;5.05;;;;;;;;;;4899426;29;20049;-84
2023/08/28 12:44:52;;;;;;;8.52;3.97;;;;;;;;;;4882824;29;20079;-84
2023/08/28 12:47:25;;;;;;;;;;;;;;;;;;4883235;29;20426;-80
2023/08/28 12:49:58;;;;;;;11.50;5.65;;;;;;;;;;4899509;29;19931;-80
2023/08/28 12:52:30;;;;;;;10.65;3.90;;;;;;;;;;4899259;29;20385;-84
2023/08/28 12:55:04;;;;;;;9.20;5.25;;;;;;;;;;4883132;29;20080;-81
2023/08/28 12:57:38;;;;;;;11.48;4.20;;;;;;;;;;4898974;29;20048;-83
2023/08/28 13:00:11;;;;;;;14.35;5.82;;;;;;;;;;4899630;29;20055;-82
2023/08/28 13:02:41;;;;;;;11.65;5.07;;;;;;;;;;4882086;29;20053;-83
2023/08/28 13:05:18;;;;;;;11.25;5.20;;;;;;;;;;4883223;29;20519;-83
2023/08/28 13:07:49;;;;;;;11.10;4.78;;;;;;;;;;4881842;29;20056;-86
2023/08/28 13:10:22;;;;;;;8.45;4.47;;;;;;;;;;4882907;29;20045;-82
2023/08/28 13:12:53;;;;;;;17.05;5.95;;;;;;;;;;4882070;29;20049;-81
2023/08/28 13:15:25;;;;;;;13.07;5.78;;;;;;;;;;4899226;29;20051;-82
2023/08/28 13:17:58;;;;;;;14.52;7.72;;;;;;;;;;4897944;29;20512;-82
2023/08/28 13:20:30;;;;;;;8.57;4.35;;;;;;;;;;4898938;29;20049;-83
2023/08/28 13:23:01;;;;;;;14.07;5.57;;;;;;;;;;4899187;29;20048;-81
2023/08/28 13:25:35;;;;;;;8.73;4.90;;;;;;;;;;4898398;29;20059;-83
2023/08/28 13:28:06;;;;;;;11.10;5.18;;;;;;;;;;4883729;29;20044;-83
2023/08/28 13:30:37;;;;;;;9.30;4.90;;;;;;;;;;4898358;29;20377;-84
2023/08/28 13:33:11;;;;;;;8.55;4.70;;;;;;;;;;4881490;29;20064;-82
2023/08/28 13:35:43;;;;;;;10.13;5.07;;;;;;;;;;4899302;29;20075;-82
2023/08/28 13:38:15;;;;;;;10.25;5.22;;;;;;;;;;4916093;29;20045;-83
2023/08/28 13:40:46;;;;;;;;;;;;;;;;;;4903570;29;20126;-82
2023/08/28 13:43:18;;;;;;;9.60;4.10;;;;;;;;;;4922084;29;19912;-83
2023/08/28 13:45:50;;;;;;;;;;;;;;;;;;4920849;29;20055;-81
2023/08/28 13:48:22;;;;;;;11.95;2.38;;;;;;;;;;4881817;29;19923;-81
2023/08/28 13:50:55;;;;;;;9.60;4.50;;;;;;;;;;4898124;29;20216;-81
2023/08/28 13:53:29;;;;;;;10.60;3.63;;;;;;;;;;4881163;29;20053;-81
2023/08/28 13:56:04;;;;;;;12.05;5.40;;;;;;;;;;4883677;29;20049;-82
2023/08/28 13:58:35;;;;;;;10.70;4.72;;;;;;;;;;4883850;29;20412;-82
2023/08/28 14:01:08;;;;;;;10.65;4.55;;;;;;;;;;4882580;29;20547;-83
2023/08/28 14:03:40;;;;;;;10.27;4.63;;;;;;;;;;4898292;29;20056;-81
2023/08/28 14:06:12;;;;;;;9.55;4.88;;;;;;;;;;4883414;29;20052;-81
2023/08/28 14:08:42;;;;;;;8.02;4.60;;;;;;;;;;4900719;29;20044;-81
2023/08/28 14:11:15;;;;;;;12.80;5.13;;;;;;;;;;4894899;29;20055;-80
2023/08/28 14:13:49;;;;;;;8.70;4.72;;;;;;;;;;4917024;29;20056;-83
2023/08/28 14:16:19;;;;;;;10.13;4.03;;;;;;;;;;4897552;29;20052;-82
2023/08/28 14:19:14;;;;;;;9.50;4.30;;;;;;;;;;4914840;29;20044;-82
2023/08/28 14:21:48;;;;;;;6.22;3.22;;;;;;;;;;4916156;29;20063;-82
2023/08/28 14:24:24;;;;;;;10.15;4.40;;;;;;;;;;4899810;29;20052;-82
2023/08/28 14:27:31;;;;;;;8.73;4.85;;;;;;;;;;4897975;29;20527;-82
2023/08/28 14:30:29;;;;;;;9.25;4.40;;;;;;;;;;4870638;29;20052;-83
2023/08/28 14:32:59;;;;;;;9.80;4.25;;;;;;;;;;4881969;29;20053;-83
2023/08/28 14:35:31;;;;;;;10.40;3.75;;;;;;;;;;4880236;29;20076;-83
2023/08/28 14:38:02;;;;;;;8.98;4.03;;;;;;;;;;4896032;29;20053;-82
2023/08/28 14:40:36;;;;;;;7.45;4.10;;;;;;;;;;4882156;29;20052;-83
2023/08/28 14:43:19;;;;;;;14.10;4.55;;;;;;;;;;4879890;29;20060;-83
2023/08/28 14:45:55;;;;;;;10.18;4.75;;;;;;;;;;4897825;29;20053;-84
2023/08/28 14:48:26;;;;;;;10.82;4.22;;;;;;;;;;4894931;29;20389;-84
2023/08/28 14:50:58;;;;;;;8.55;4.03;;;;;;;;;;4881008;29;20562;-85
2023/08/28 14:53:32;;;;;;;9.70;4.40;;;;;;;;;;4896914;29;20063;-86
2023/08/28 14:56:28;;;;;;;7.10;3.70;;;;;;;;;;4898507;29;20052;-82
2023/08/28 15:11:59;;;;;;;9.23;4.63;;;;;;;;;;4904096;29;20492;-86
2023/08/28 15:14:30;;;;;;;8.60;4.05;;;;;;;;;;4901607;29;20523;-84
2023/08/28 15:21:24;;;;;;;9.00;3.72;;;;;;;;;;4906445;29;20411;-86
2023/08/28 15:23:56;;;;;;;8.13;3.97;;;;;;;;;;4902728;29;20055;-84
2023/08/28 15:26:29;;;;;;;10.02;3.88;;;;;;;;;;4884559;29;20056;-85
2023/08/28 15:29:01;;;;;;;8.25;4.18;;;;;;;;;;4902232;29;20052;-85
2023/08/28 15:31:31;;;;;;;8.35;4.72;;;;;;;;;;4902032;29;20056;-83
2023/08/28 15:34:05;;;;;;;8.45;4.40;;;;;;;;;;4901655;29;20044;-81
2023/08/28 15:36:37;;;;;;;8.25;4.18;;;;;;;;;;4900376;29;20056;-82
2023/08/28 15:39:08;;;;;;;6.85;2.55;;;;;;;;;;4900187;29;20060;-82